sensor_id;sensor_type;location;lat;lon;timestamp;pressure;altitude;pressure_sealevel;temperature;humidity
52975;BME280;38839;45.186;5.720;2022-09-29T00:01:31;97649.25;;;27.18;40.80
52975;BME280;38839;45.186;5.720;2022-09-29T00:03:57;97642.34;;;27.15;40.61
52975;BME280;38839;45.186;5.720;2022-09-29T00:06:22;97634.88;;;27.28;40.49
52975;BME280;38839;45.186;5.720;2022-09-29T00:08:48;97625.31;;;27.26;40.58
52975;BME280;38839;45.186;5.720;2022-09-29T00:11:17;97630.88;;;26.95;41.00
52975;BME280;38839;45.186;5.720;2022-09-29T00:13:43;97623.75;;;26.57;41.75
52975;BME280;38839;45.186;5.720;2022-09-29T00:16:08;97618.56;;;26.26;42.37
52975;BME280;38839;45.186;5.720;2022-09-29T00:18:34;97612.22;;;26.07;42.71
52975;BME280;38839;45.186;5.720;2022-09-29T00:21:05;97601.53;;;26.27;42.84
52975;BME280;38839;45.186;5.720;2022-09-29T00:23:32;97601.94;;;26.13;43.11
52975;BME280;38839;45.186;5.720;2022-09-29T00:26:10;97607.00;;;26.45;42.32
52975;BME280;38839;45.186;5.720;2022-09-29T00:28:38;97616.94;;;26.82;41.77
52975;BME280;38839;45.186;5.720;2022-09-29T00:31:05;97619.59;;;26.92;41.63
52975;BME280;38839;45.186;5.720;2022-09-29T00:33:32;97624.63;;;27.04;41.07
52975;BME280;38839;45.186;5.720;2022-09-29T00:36:00;97626.50;;;26.94;41.32
52975;BME280;38839;45.186;5.720;2022-09-29T00:38:27;97632.34;;;27.17;40.80
52975;BME280;38839;45.186;5.720;2022-09-29T00:40:53;97628.47;;;27.02;41.62
52975;BME280;38839;45.186;5.720;2022-09-29T00:43:48;97620.44;;;27.02;41.58
52975;BME280;38839;45.186;5.720;2022-09-29T00:46:16;97607.41;;;26.79;41.89
52975;BME280;38839;45.186;5.720;2022-09-29T00:48:44;97604.31;;;26.35;42.87
52975;BME280;38839;45.186;5.720;2022-09-29T00:51:11;97599.78;;;25.77;44.04
52975;BME280;38839;45.186;5.720;2022-09-29T00:53:38;97603.19;;;26.47;42.50
52975;BME280;38839;45.186;5.720;2022-09-29T00:56:09;97609.06;;;26.80;41.84
52975;BME280;38839;45.186;5.720;2022-09-29T00:58:43;97616.69;;;26.75;42.36
52975;BME280;38839;45.186;5.720;2022-09-29T01:01:19;97601.16;;;26.88;41.77
52975;BME280;38839;45.186;5.720;2022-09-29T01:03:45;97584.59;;;26.75;42.03
52975;BME280;38839;45.186;5.720;2022-09-29T01:06:16;97602.28;;;26.96;41.41
52975;BME280;38839;45.186;5.720;2022-09-29T01:08:48;97599.88;;;26.93;41.68
52975;BME280;38839;45.186;5.720;2022-09-29T01:11:17;97594.16;;;26.68;41.99
52975;BME280;38839;45.186;5.720;2022-09-29T01:13:45;97596.56;;;26.71;42.09
52975;BME280;38839;45.186;5.720;2022-09-29T01:16:10;97594.03;;;26.79;41.55
52975;BME280;38839;45.186;5.720;2022-09-29T01:18:36;97598.94;;;26.84;41.77
52975;BME280;38839;45.186;5.720;2022-09-29T01:21:35;97594.81;;;26.99;41.69
52975;BME280;38839;45.186;5.720;2022-09-29T01:27:23;97585.84;;;27.28;41.16
52975;BME280;38839;45.186;5.720;2022-09-29T01:33:07;97593.28;;;26.87;41.70
52975;BME280;38839;45.186;5.720;2022-09-29T01:36:00;97574.88;;;26.74;42.11
52975;BME280;38839;45.186;5.720;2022-09-29T01:46:58;97579.56;;;27.09;41.39
52975;BME280;38839;45.186;5.720;2022-09-29T01:49:29;97573.44;;;27.17;41.02
52975;BME280;38839;45.186;5.720;2022-09-29T01:52:03;97574.56;;;27.24;40.66
52975;BME280;38839;45.186;5.720;2022-09-29T01:57:09;97573.31;;;26.81;41.26
52975;BME280;38839;45.186;5.720;2022-09-29T01:59:54;97581.22;;;26.73;41.60
52975;BME280;38839;45.186;5.720;2022-09-29T02:02:31;97580.78;;;26.68;41.27
52975;BME280;38839;45.186;5.720;2022-09-29T02:05:02;97573.22;;;26.63;41.66
52975;BME280;38839;45.186;5.720;2022-09-29T02:07:41;97569.56;;;26.55;41.51
52975;BME280;38839;45.186;5.720;2022-09-29T02:10:25;97577.44;;;26.66;41.44
52975;BME280;38839;45.186;5.720;2022-09-29T02:12:53;97583.72;;;26.84;41.40
52975;BME280;38839;45.186;5.720;2022-09-29T02:15:24;97578.34;;;26.84;41.19
52975;BME280;38839;45.186;5.720;2022-09-29T02:17:52;97585.97;;;26.89;40.97
52975;BME280;38839;45.186;5.720;2022-09-29T02:20:20;97578.06;;;26.97;40.97
52975;BME280;38839;45.186;5.720;2022-09-29T02:22:46;97582.06;;;26.64;41.37
52975;BME280;38839;45.186;5.720;2022-09-29T02:25:15;97574.72;;;26.76;41.64
52975;BME280;38839;45.186;5.720;2022-09-29T02:27:41;97563.06;;;26.67;41.43
52975;BME280;38839;45.186;5.720;2022-09-29T02:30:07;97576.19;;;26.31;41.85
52975;BME280;38839;45.186;5.720;2022-09-29T02:32:34;97565.31;;;26.62;41.43
52975;BME280;38839;45.186;5.720;2022-09-29T02:35:02;97558.44;;;26.49;42.04
52975;BME280;38839;45.186;5.720;2022-09-29T02:38:05;97551.31;;;26.87;41.60
52975;BME280;38839;45.186;5.720;2022-09-29T02:46:53;97564.28;;;26.82;41.32
52975;BME280;38839;45.186;5.720;2022-09-29T02:51:59;97555.63;;;26.61;41.69
52975;BME280;38839;45.186;5.720;2022-09-29T03:00:09;97553.34;;;26.66;41.61
52975;BME280;38839;45.186;5.720;2022-09-29T03:02:37;97554.84;;;26.88;41.31
52975;BME280;38839;45.186;5.720;2022-09-29T03:05:08;97546.25;;;26.84;41.60
52975;BME280;38839;45.186;5.720;2022-09-29T03:07:37;97544.09;;;26.98;41.23
52975;BME280;38839;45.186;5.720;2022-09-29T03:10:04;97541.41;;;26.98;40.98
52975;BME280;38839;45.186;5.720;2022-09-29T03:12:30;97543.19;;;26.79;41.45
52975;BME280;38839;45.186;5.720;2022-09-29T03:14:56;97569.69;;;26.73;41.48
52975;BME280;38839;45.186;5.720;2022-09-29T03:17:21;97583.06;;;26.63;41.81
52975;BME280;38839;45.186;5.720;2022-09-29T03:19:47;97590.19;;;26.92;41.35
52975;BME280;38839;45.186;5.720;2022-09-29T03:22:12;97599.66;;;26.57;42.25
52975;BME280;38839;45.186;5.720;2022-09-29T03:24:38;97596.72;;;26.60;41.79
52975;BME280;38839;45.186;5.720;2022-09-29T03:27:03;97588.84;;;26.48;42.21
52975;BME280;38839;45.186;5.720;2022-09-29T03:29:29;97583.81;;;26.26;42.10
52975;BME280;38839;45.186;5.720;2022-09-29T03:31:57;97579.25;;;25.68;42.50
52975;BME280;38839;45.186;5.720;2022-09-29T03:34:22;97589.97;;;24.97;43.03
52975;BME280;38839;45.186;5.720;2022-09-29T03:36:48;97582.50;;;24.27;43.63
52975;BME280;38839;45.186;5.720;2022-09-29T03:39:13;97584.03;;;24.41;42.95
52975;BME280;38839;45.186;5.720;2022-09-29T03:41:39;97589.78;;;23.49;42.19
52975;BME280;38839;45.186;5.720;2022-09-29T03:44:04;97589.41;;;23.65;43.31
52975;BME280;38839;45.186;5.720;2022-09-29T03:46:29;97601.91;;;23.97;42.09
52975;BME280;38839;45.186;5.720;2022-09-29T03:48:55;97607.66;;;24.14;42.39
52975;BME280;38839;45.186;5.720;2022-09-29T03:51:20;97600.22;;;23.96;41.20
52975;BME280;38839;45.186;5.720;2022-09-29T03:53:46;97595.28;;;24.66;40.78
52975;BME280;38839;45.186;5.720;2022-09-29T03:56:11;97593.16;;;24.60;40.84
52975;BME280;38839;45.186;5.720;2022-09-29T03:58:36;97598.00;;;25.27;39.59
52975;BME280;38839;45.186;5.720;2022-09-29T04:01:02;97607.38;;;25.62;39.58
52975;BME280;38839;45.186;5.720;2022-09-29T04:03:28;97600.75;;;25.66;39.11
52975;BME280;38839;45.186;5.720;2022-09-29T04:05:53;97606.50;;;25.52;39.70
52975;BME280;38839;45.186;5.720;2022-09-29T04:08:19;97605.28;;;25.85;39.38
52975;BME280;38839;45.186;5.720;2022-09-29T04:10:47;97610.91;;;25.82;39.88
52975;BME280;38839;45.186;5.720;2022-09-29T04:13:13;97608.78;;;25.86;39.66
52975;BME280;38839;45.186;5.720;2022-09-29T04:15:38;97603.78;;;25.93;39.61
52975;BME280;38839;45.186;5.720;2022-09-29T04:18:04;97617.28;;;25.91;39.84
52975;BME280;38839;45.186;5.720;2022-09-29T04:20:30;97615.19;;;25.95;39.64
52975;BME280;38839;45.186;5.720;2022-09-29T04:22:56;97609.97;;;26.03;39.47
52975;BME280;38839;45.186;5.720;2022-09-29T04:25:22;97610.22;;;25.90;39.63
52975;BME280;38839;45.186;5.720;2022-09-29T04:27:48;97608.94;;;25.84;39.96
52975;BME280;38839;45.186;5.720;2022-09-29T04:30:13;97600.91;;;25.75;40.06
52975;BME280;38839;45.186;5.720;2022-09-29T04:32:39;97609.25;;;25.91;40.13
52975;BME280;38839;45.186;5.720;2022-09-29T04:35:05;97609.56;;;26.07;40.02
52975;BME280;38839;45.186;5.720;2022-09-29T04:37:30;97611.94;;;26.01;39.79
52975;BME280;38839;45.186;5.720;2022-09-29T04:39:56;97605.91;;;25.99;39.65
52975;BME280;38839;45.186;5.720;2022-09-29T04:42:21;97609.97;;;26.13;39.44
52975;BME280;38839;45.186;5.720;2022-09-29T04:44:47;97609.97;;;26.32;38.90
52975;BME280;38839;45.186;5.720;2022-09-29T04:47:13;97612.47;;;26.43;39.13
52975;BME280;38839;45.186;5.720;2022-09-29T04:49:38;97621.91;;;26.47;38.83
52975;BME280;38839;45.186;5.720;2022-09-29T04:52:04;97609.84;;;26.14;39.88
52975;BME280;38839;45.186;5.720;2022-09-29T04:54:33;97625.59;;;26.37;39.71
52975;BME280;38839;45.186;5.720;2022-09-29T04:56:58;97615.31;;;26.22;39.62
52975;BME280;38839;45.186;5.720;2022-09-29T04:59:25;97618.56;;;26.36;39.19
52975;BME280;38839;45.186;5.720;2022-09-29T05:01:50;97627.13;;;26.39;38.99
52975;BME280;38839;45.186;5.720;2022-09-29T05:04:16;97628.56;;;26.24;39.46
52975;BME280;38839;45.186;5.720;2022-09-29T05:06:41;97632.63;;;26.28;39.40
52975;BME280;38839;45.186;5.720;2022-09-29T05:09:07;97637.00;;;26.09;39.72
52975;BME280;38839;45.186;5.720;2022-09-29T05:11:33;97643.31;;;26.28;39.24
52975;BME280;38839;45.186;5.720;2022-09-29T05:13:58;97637.25;;;26.16;39.19
52975;BME280;38839;45.186;5.720;2022-09-29T05:16:25;97641.13;;;25.73;40.03
52975;BME280;38839;45.186;5.720;2022-09-29T05:18:50;97644.22;;;25.88;39.57
52975;BME280;38839;45.186;5.720;2022-09-29T05:21:16;97645.22;;;25.87;39.56
52975;BME280;38839;45.186;5.720;2022-09-29T05:23:41;97635.84;;;26.02;39.51
52975;BME280;38839;45.186;5.720;2022-09-29T05:26:08;97638.38;;;25.94;39.76
52975;BME280;38839;45.186;5.720;2022-09-29T05:28:34;97639.31;;;25.83;39.91
52975;BME280;38839;45.186;5.720;2022-09-29T05:31:04;97640.59;;;25.89;40.20
52975;BME280;38839;45.186;5.720;2022-09-29T05:33:30;97644.31;;;26.07;39.73
52975;BME280;38839;45.186;5.720;2022-09-29T05:35:56;97641.22;;;26.32;39.15
52975;BME280;38839;45.186;5.720;2022-09-29T05:38:22;97651.97;;;25.81;40.04
52975;BME280;38839;45.186;5.720;2022-09-29T05:40:49;97653.25;;;25.87;40.05
52975;BME280;38839;45.186;5.720;2022-09-29T05:43:14;97655.97;;;26.06;39.57
52975;BME280;38839;45.186;5.720;2022-09-29T05:45:40;97658.25;;;25.70;40.01
52975;BME280;38839;45.186;5.720;2022-09-29T05:48:06;97660.59;;;25.95;39.31
52975;BME280;38839;45.186;5.720;2022-09-29T05:50:33;97647.38;;;26.13;38.86
52975;BME280;38839;45.186;5.720;2022-09-29T05:53:06;97651.34;;;26.28;38.70
52975;BME280;38839;45.186;5.720;2022-09-29T05:55:31;97659.78;;;26.53;38.33
52975;BME280;38839;45.186;5.720;2022-09-29T05:57:57;97662.88;;;26.38;38.50
52975;BME280;38839;45.186;5.720;2022-09-29T06:00:22;97659.66;;;26.54;38.37
52975;BME280;38839;45.186;5.720;2022-09-29T06:02:48;97656.09;;;26.54;38.21
52975;BME280;38839;45.186;5.720;2022-09-29T06:05:13;97651.78;;;26.62;37.83
52975;BME280;38839;45.186;5.720;2022-09-29T06:07:38;97648.22;;;26.91;37.80
52975;BME280;38839;45.186;5.720;2022-09-29T06:10:04;97657.22;;;26.90;37.58
52975;BME280;38839;45.186;5.720;2022-09-29T06:12:33;97662.31;;;26.83;37.81
52975;BME280;38839;45.186;5.720;2022-09-29T06:15:00;97662.13;;;26.95;37.86
52975;BME280;38839;45.186;5.720;2022-09-29T06:17:25;97662.00;;;26.96;37.97
52975;BME280;38839;45.186;5.720;2022-09-29T06:19:50;97662.88;;;26.77;38.30
52975;BME280;38839;45.186;5.720;2022-09-29T06:22:18;97659.28;;;27.06;37.74
52975;BME280;38839;45.186;5.720;2022-09-29T06:24:43;97658.91;;;26.91;37.88
52975;BME280;38839;45.186;5.720;2022-09-29T06:27:09;97660.44;;;26.94;38.09
52975;BME280;38839;45.186;5.720;2022-09-29T06:29:35;97658.03;;;26.90;37.87
52975;BME280;38839;45.186;5.720;2022-09-29T06:32:01;97670.19;;;26.56;38.38
52975;BME280;38839;45.186;5.720;2022-09-29T06:34:27;97667.66;;;26.54;38.63
52975;BME280;38839;45.186;5.720;2022-09-29T06:36:52;97662.84;;;26.19;38.99
52975;BME280;38839;45.186;5.720;2022-09-29T06:39:36;97648.50;;;26.39;38.17
52975;BME280;38839;45.186;5.720;2022-09-29T06:42:02;97657.22;;;26.41;38.37
52975;BME280;38839;45.186;5.720;2022-09-29T06:44:27;97655.13;;;26.35;38.28
52975;BME280;38839;45.186;5.720;2022-09-29T06:46:55;97653.59;;;26.42;38.22
52975;BME280;38839;45.186;5.720;2022-09-29T06:49:21;97655.56;;;26.60;37.73
52975;BME280;38839;45.186;5.720;2022-09-29T06:51:48;97655.13;;;26.74;37.59
52975;BME280;38839;45.186;5.720;2022-09-29T06:54:16;97652.47;;;26.55;38.49
52975;BME280;38839;45.186;5.720;2022-09-29T06:56:45;97644.31;;;26.46;38.68
52975;BME280;38839;45.186;5.720;2022-09-29T06:59:10;97642.63;;;26.26;38.52
52975;BME280;38839;45.186;5.720;2022-09-29T07:01:36;97645.16;;;26.18;38.82
52975;BME280;38839;45.186;5.720;2022-09-29T07:04:02;97645.97;;;26.47;37.84
52975;BME280;38839;45.186;5.720;2022-09-29T07:06:28;97640.94;;;26.54;38.09
52975;BME280;38839;45.186;5.720;2022-09-29T07:08:54;97635.31;;;26.67;37.94
52975;BME280;38839;45.186;5.720;2022-09-29T07:11:20;97631.47;;;26.79;37.58
52975;BME280;38839;45.186;5.720;2022-09-29T07:13:46;97637.78;;;26.78;37.54
52975;BME280;38839;45.186;5.720;2022-09-29T07:16:12;97644.28;;;26.66;37.91
52975;BME280;38839;45.186;5.720;2022-09-29T07:18:40;97634.47;;;26.66;38.25
52975;BME280;38839;45.186;5.720;2022-09-29T07:21:07;97638.94;;;26.56;38.17
52975;BME280;38839;45.186;5.720;2022-09-29T07:23:34;97646.13;;;26.65;38.04
52975;BME280;38839;45.186;5.720;2022-09-29T07:26:00;97634.44;;;26.47;38.08
52975;BME280;38839;45.186;5.720;2022-09-29T07:28:27;97637.78;;;26.78;37.71
52975;BME280;38839;45.186;5.720;2022-09-29T07:31:08;97635.09;;;26.88;37.79
52975;BME280;38839;45.186;5.720;2022-09-29T07:33:33;97640.38;;;26.60;38.11
52975;BME280;38839;45.186;5.720;2022-09-29T07:35:59;97638.81;;;26.77;38.11
52975;BME280;38839;45.186;5.720;2022-09-29T07:38:28;97639.50;;;26.79;38.33
52975;BME280;38839;45.186;5.720;2022-09-29T07:41:17;97640.34;;;26.70;37.99
52975;BME280;38839;45.186;5.720;2022-09-29T07:43:42;97638.09;;;26.65;38.05
52975;BME280;38839;45.186;5.720;2022-09-29T07:46:08;97632.75;;;26.75;37.93
52975;BME280;38839;45.186;5.720;2022-09-29T07:48:34;97641.47;;;26.87;37.78
52975;BME280;38839;45.186;5.720;2022-09-29T07:51:12;97631.91;;;26.75;37.72
52975;BME280;38839;45.186;5.720;2022-09-29T07:53:38;97634.50;;;27.04;37.43
52975;BME280;38839;45.186;5.720;2022-09-29T07:56:06;97637.53;;;27.28;37.21
52975;BME280;38839;45.186;5.720;2022-09-29T07:58:32;97641.94;;;27.10;37.74
52975;BME280;38839;45.186;5.720;2022-09-29T08:00:59;97638.00;;;27.14;37.65
52975;BME280;38839;45.186;5.720;2022-09-29T08:03:25;97636.03;;;27.06;37.21
52975;BME280;38839;45.186;5.720;2022-09-29T08:05:52;97639.19;;;26.82;37.66
52975;BME280;38839;45.186;5.720;2022-09-29T08:08:17;97632.75;;;26.85;37.67
52975;BME280;38839;45.186;5.720;2022-09-29T08:10:43;97648.59;;;27.06;37.46
52975;BME280;38839;45.186;5.720;2022-09-29T08:13:08;97638.03;;;27.04;37.41
52975;BME280;38839;45.186;5.720;2022-09-29T08:15:34;97639.66;;;27.15;37.38
52975;BME280;38839;45.186;5.720;2022-09-29T08:17:59;97647.34;;;27.38;36.84
52975;BME280;38839;45.186;5.720;2022-09-29T08:20:24;97651.75;;;27.39;36.61
52975;BME280;38839;45.186;5.720;2022-09-29T08:22:51;97652.81;;;27.46;36.51
52975;BME280;38839;45.186;5.720;2022-09-29T08:25:20;97653.41;;;27.40;36.61
52975;BME280;38839;45.186;5.720;2022-09-29T08:27:45;97658.97;;;27.28;36.55
52975;BME280;38839;45.186;5.720;2022-09-29T08:30:11;97660.13;;;27.26;36.95
52975;BME280;38839;45.186;5.720;2022-09-29T08:32:37;97652.19;;;27.34;36.85
52975;BME280;38839;45.186;5.720;2022-09-29T08:35:03;97652.63;;;27.57;36.25
52975;BME280;38839;45.186;5.720;2022-09-29T08:37:29;97652.56;;;27.39;36.55
52975;BME280;38839;45.186;5.720;2022-09-29T08:39:55;97649.44;;;27.44;36.38
52975;BME280;38839;45.186;5.720;2022-09-29T08:42:27;97645.47;;;27.48;36.25
52975;BME280;38839;45.186;5.720;2022-09-29T08:45:01;97653.13;;;27.70;35.85
52975;BME280;38839;45.186;5.720;2022-09-29T08:47:54;97652.50;;;27.86;35.70
52975;BME280;38839;45.186;5.720;2022-09-29T08:50:25;97650.38;;;27.15;36.43
52975;BME280;38839;45.186;5.720;2022-09-29T08:52:59;97651.97;;;27.45;36.04
52975;BME280;38839;45.186;5.720;2022-09-29T08:56:05;97652.91;;;27.54;35.75
52975;BME280;38839;45.186;5.720;2022-09-29T08:58:32;97652.41;;;27.68;36.12
52975;BME280;38839;45.186;5.720;2022-09-29T09:06:28;97655.88;;;27.79;36.10
52975;BME280;38839;45.186;5.720;2022-09-29T09:09:33;97670.09;;;27.89;35.72
52975;BME280;38839;45.186;5.720;2022-09-29T09:22:42;97659.97;;;27.55;36.24
52975;BME280;38839;45.186;5.720;2022-09-29T09:25:31;97665.03;;;27.86;36.34
52975;BME280;38839;45.186;5.720;2022-09-29T09:28:07;97662.25;;;27.87;35.74
52975;BME280;38839;45.186;5.720;2022-09-29T09:30:42;97658.94;;;28.12;35.64
52975;BME280;38839;45.186;5.720;2022-09-29T09:35:54;97655.75;;;28.26;35.44
52975;BME280;38839;45.186;5.720;2022-09-29T09:38:33;97655.91;;;28.06;35.39
52975;BME280;38839;45.186;5.720;2022-09-29T09:41:04;97646.81;;;27.62;36.17
52975;BME280;38839;45.186;5.720;2022-09-29T09:43:33;97644.00;;;27.63;35.83
52975;BME280;38839;45.186;5.720;2022-09-29T09:46:21;97644.69;;;27.93;35.19
52975;BME280;38839;45.186;5.720;2022-09-29T09:51:40;97639.63;;;27.35;36.10
52975;BME280;38839;45.186;5.720;2022-09-29T09:54:25;97639.59;;;27.44;36.03
52975;BME280;38839;45.186;5.720;2022-09-29T10:00:06;97650.03;;;27.38;35.76
52975;BME280;38839;45.186;5.720;2022-09-29T10:02:43;97635.69;;;27.19;35.96
52975;BME280;38839;45.186;5.720;2022-09-29T10:05:16;97644.59;;;27.20;35.92
52975;BME280;38839;45.186;5.720;2022-09-29T10:07:43;97638.03;;;27.69;35.79
52975;BME280;38839;45.186;5.720;2022-09-29T10:10:22;97640.34;;;28.10;34.42
52975;BME280;38839;45.186;5.720;2022-09-29T10:15:28;97626.81;;;27.84;34.45
52975;BME280;38839;45.186;5.720;2022-09-29T10:18:08;97638.56;;;27.18;35.51
52975;BME280;38839;45.186;5.720;2022-09-29T10:20:38;97639.13;;;27.12;35.95
52975;BME280;38839;45.186;5.720;2022-09-29T10:23:18;97632.09;;;27.76;35.33
52975;BME280;38839;45.186;5.720;2022-09-29T10:25:57;97634.75;;;27.48;35.40
52975;BME280;38839;45.186;5.720;2022-09-29T10:28:27;97635.13;;;26.78;36.22
52975;BME280;38839;45.186;5.720;2022-09-29T10:30:54;97635.25;;;26.86;36.44
52975;BME280;38839;45.186;5.720;2022-09-29T10:33:22;97628.81;;;26.69;36.71
52975;BME280;38839;45.186;5.720;2022-09-29T10:35:49;97639.44;;;26.99;35.98
52975;BME280;38839;45.186;5.720;2022-09-29T10:41:01;97639.78;;;26.57;36.58
52975;BME280;38839;45.186;5.720;2022-09-29T10:45:57;97644.28;;;26.27;37.40
52975;BME280;38839;45.186;5.720;2022-09-29T10:48:24;97652.94;;;25.70;37.58
52975;BME280;38839;45.186;5.720;2022-09-29T10:51:01;97650.66;;;25.66;37.49
52975;BME280;38839;45.186;5.720;2022-09-29T10:56:00;97656.44;;;25.71;37.88
52975;BME280;38839;45.186;5.720;2022-09-29T10:58:28;97646.16;;;25.66;37.99
52975;BME280;38839;45.186;5.720;2022-09-29T11:01:08;97642.34;;;26.19;37.42
52975;BME280;38839;45.186;5.720;2022-09-29T11:03:40;97648.06;;;26.54;37.03
52975;BME280;38839;45.186;5.720;2022-09-29T11:06:11;97645.72;;;26.12;37.45
52975;BME280;38839;45.186;5.720;2022-09-29T11:11:24;97657.25;;;26.22;37.20
52975;BME280;38839;45.186;5.720;2022-09-29T11:13:51;97655.53;;;25.92;37.97
52975;BME280;38839;45.186;5.720;2022-09-29T11:16:35;97658.66;;;26.26;37.23
52975;BME280;38839;45.186;5.720;2022-09-29T11:19:04;97655.00;;;26.07;37.61
52975;BME280;38839;45.186;5.720;2022-09-29T11:32:33;97651.16;;;26.98;36.75
52975;BME280;38839;45.186;5.720;2022-09-29T11:38:09;97659.47;;;26.56;36.18
52975;BME280;38839;45.186;5.720;2022-09-29T12:00:18;97666.75;;;25.45;37.93
52975;BME280;38839;45.186;5.720;2022-09-29T12:11:22;97678.59;;;26.02;37.35
52975;BME280;38839;45.186;5.720;2022-09-29T12:16:28;97666.47;;;25.17;37.54
52975;BME280;38839;45.186;5.720;2022-09-29T12:19:07;97679.22;;;25.35;36.94
52975;BME280;38839;45.186;5.720;2022-09-29T12:21:40;97677.38;;;25.14;36.57
52975;BME280;38839;45.186;5.720;2022-09-29T12:24:12;97666.88;;;24.92;36.72
52975;BME280;38839;45.186;5.720;2022-09-29T12:26:39;97679.63;;;24.67;36.55
52975;BME280;38839;45.186;5.720;2022-09-29T12:31:49;97675.78;;;25.02;35.57
52975;BME280;38839;45.186;5.720;2022-09-29T12:34:44;97679.06;;;25.36;35.07
52975;BME280;38839;45.186;5.720;2022-09-29T12:37:14;97682.94;;;25.53;35.06
52975;BME280;38839;45.186;5.720;2022-09-29T12:39:55;97679.75;;;25.28;34.68
52975;BME280;38839;45.186;5.720;2022-09-29T12:45:56;97683.47;;;25.47;34.26
52975;BME280;38839;45.186;5.720;2022-09-29T12:51:03;97675.59;;;24.94;34.68
52975;BME280;38839;45.186;5.720;2022-09-29T12:53:37;97677.78;;;25.09;35.33
52975;BME280;38839;45.186;5.720;2022-09-29T12:56:17;97679.69;;;24.98;34.90
52975;BME280;38839;45.186;5.720;2022-09-29T12:59:11;97680.94;;;24.94;35.03
52975;BME280;38839;45.186;5.720;2022-09-29T13:12:57;97669.50;;;25.64;34.49
52975;BME280;38839;45.186;5.720;2022-09-29T13:18:41;97670.47;;;26.53;33.44
52975;BME280;38839;45.186;5.720;2022-09-29T13:24:00;97675.22;;;26.00;33.95
52975;BME280;38839;45.186;5.720;2022-09-29T13:27:09;97686.19;;;25.97;34.32
52975;BME280;38839;45.186;5.720;2022-09-29T13:29:51;97679.50;;;26.42;33.70
52975;BME280;38839;45.186;5.720;2022-09-29T13:32:20;97670.47;;;26.14;34.00
52975;BME280;38839;45.186;5.720;2022-09-29T13:34:53;97669.31;;;25.56;34.25
52975;BME280;38839;45.186;5.720;2022-09-29T13:37:22;97674.41;;;25.07;35.45
52975;BME280;38839;45.186;5.720;2022-09-29T13:39:59;97682.47;;;25.17;35.40
52975;BME280;38839;45.186;5.720;2022-09-29T13:42:48;97689.69;;;25.57;34.80
52975;BME280;38839;45.186;5.720;2022-09-29T13:47:52;97671.72;;;25.59;34.39
52975;BME280;38839;45.186;5.720;2022-09-29T13:55:55;97683.94;;;25.93;34.38
52975;BME280;38839;45.186;5.720;2022-09-29T13:58:36;97688.50;;;26.70;33.54
52975;BME280;38839;45.186;5.720;2022-09-29T14:01:08;97692.47;;;25.86;34.68
52975;BME280;38839;45.186;5.720;2022-09-29T14:03:41;97691.66;;;25.55;35.54
52975;BME280;38839;45.186;5.720;2022-09-29T14:06:17;97710.97;;;25.68;35.63
52975;BME280;38839;45.186;5.720;2022-09-29T14:09:14;97711.47;;;25.53;35.98
52975;BME280;38839;45.186;5.720;2022-09-29T14:11:47;97706.97;;;25.53;35.42
52975;BME280;38839;45.186;5.720;2022-09-29T14:14:24;97711.94;;;25.58;35.81
52975;BME280;38839;45.186;5.720;2022-09-29T14:16:57;97712.66;;;25.39;36.04
52975;BME280;38839;45.186;5.720;2022-09-29T14:28:09;97716.13;;;26.61;34.08
52975;BME280;38839;45.186;5.720;2022-09-29T14:30:38;97724.34;;;26.09;34.92
52975;BME280;38839;45.186;5.720;2022-09-29T14:33:12;97724.22;;;26.30;34.69
52975;BME280;38839;45.186;5.720;2022-09-29T14:38:30;97733.09;;;26.40;34.37
52975;BME280;38839;45.186;5.720;2022-09-29T14:43:38;97732.75;;;25.74;35.66
52975;BME280;38839;45.186;5.720;2022-09-29T14:55:02;97738.28;;;27.29;33.10
52975;BME280;38839;45.186;5.720;2022-09-29T14:57:34;97736.25;;;27.51;32.87
52975;BME280;38839;45.186;5.720;2022-09-29T15:00:07;97742.78;;;27.19;33.25
52975;BME280;38839;45.186;5.720;2022-09-29T15:02:40;97745.09;;;27.24;33.75
52975;BME280;38839;45.186;5.720;2022-09-29T15:05:24;97747.91;;;26.64;34.44
52975;BME280;38839;45.186;5.720;2022-09-29T15:28:54;97740.81;;;26.24;35.22
52975;BME280;38839;45.186;5.720;2022-09-29T15:31:26;97743.44;;;25.64;36.68
52975;BME280;38839;45.186;5.720;2022-09-29T15:33:52;97740.22;;;26.10;36.08
52975;BME280;38839;45.186;5.720;2022-09-29T15:36:49;97753.66;;;26.49;35.40
52975;BME280;38839;45.186;5.720;2022-09-29T15:39:40;97756.00;;;26.14;35.93
52975;BME280;38839;45.186;5.720;2022-09-29T15:42:29;97756.19;;;25.60;37.22
52975;BME280;38839;45.186;5.720;2022-09-29T15:45:08;97764.81;;;25.01;38.08
52975;BME280;38839;45.186;5.720;2022-09-29T15:47:39;97767.38;;;25.02;38.44
52975;BME280;38839;45.186;5.720;2022-09-29T15:50:39;97768.94;;;25.26;37.88
52975;BME280;38839;45.186;5.720;2022-09-29T15:53:05;97766.78;;;25.72;36.97
52975;BME280;38839;45.186;5.720;2022-09-29T15:55:31;97769.44;;;26.02;36.56
52975;BME280;38839;45.186;5.720;2022-09-29T15:57:57;97770.75;;;25.46;37.51
52975;BME280;38839;45.186;5.720;2022-09-29T16:03:00;97786.88;;;25.45;37.64
52975;BME280;38839;45.186;5.720;2022-09-29T16:05:29;97779.84;;;25.02;38.59
52975;BME280;38839;45.186;5.720;2022-09-29T16:10:55;97781.00;;;25.41;37.80
52975;BME280;38839;45.186;5.720;2022-09-29T16:13:24;97779.78;;;25.13;38.03
52975;BME280;38839;45.186;5.720;2022-09-29T16:15:54;97782.16;;;24.74;38.66
52975;BME280;38839;45.186;5.720;2022-09-29T16:18:24;97787.91;;;24.58;39.30
52975;BME280;38839;45.186;5.720;2022-09-29T16:20:52;97792.00;;;24.74;39.20
52975;BME280;38839;45.186;5.720;2022-09-29T16:23:28;97783.03;;;24.96;38.47
52975;BME280;38839;45.186;5.720;2022-09-29T16:28:30;97784.00;;;24.62;39.39
52975;BME280;38839;45.186;5.720;2022-09-29T16:31:02;97795.09;;;24.35;39.92
52975;BME280;38839;45.186;5.720;2022-09-29T16:33:28;97796.84;;;24.02;40.34
52975;BME280;38839;45.186;5.720;2022-09-29T16:40:48;97808.00;;;23.96;40.36
52975;BME280;38839;45.186;5.720;2022-09-29T16:43:24;97806.91;;;25.18;38.24